sensor_id;sensor_type;location;lat;lon;timestamp;P1;durP1;ratioP1;P2;durP2;ratioP2
41739;SDS011;27422;52.444;13.300;2023-07-29T00:01:47;8.65;;;6.22;;
41739;SDS011;27422;52.444;13.300;2023-07-29T00:04:14;8.73;;;6.77;;
41739;SDS011;27422;52.444;13.300;2023-07-29T00:06:39;8.10;;;6.68;;
41739;SDS011;27422;52.444;13.300;2023-07-29T00:09:05;8.35;;;6.50;;
41739;SDS011;27422;52.444;13.300;2023-07-29T00:11:30;9.18;;;6.57;;
41739;SDS011;27422;52.444;13.300;2023-07-29T00:13:58;8.85;;;6.72;;
41739;SDS011;27422;52.444;13.300;2023-07-29T00:16:24;8.60;;;6.70;;
41739;SDS011;27422;52.444;13.300;2023-07-29T00:18:50;9.25;;;7.15;;
41739;SDS011;27422;52.444;13.300;2023-07-29T00:21:16;8.93;;;6.93;;
41739;SDS011;27422;52.444;13.300;2023-07-29T00:23:41;10.13;;;7.18;;
41739;SDS011;27422;52.444;13.300;2023-07-29T00:26:06;8.20;;;5.93;;
41739;SDS011;27422;52.444;13.300;2023-07-29T00:28:32;9.70;;;6.50;;
41739;SDS011;27422;52.444;13.300;2023-07-29T00:30:57;10.02;;;6.80;;
41739;SDS011;27422;52.444;13.300;2023-07-29T00:33:23;8.88;;;6.40;;
41739;SDS011;27422;52.444;13.300;2023-07-29T00:35:48;9.07;;;6.28;;
41739;SDS011;27422;52.444;13.300;2023-07-29T00:38:13;7.93;;;6.10;;
41739;SDS011;27422;52.444;13.300;2023-07-29T00:40:39;8.63;;;6.60;;
41739;SDS011;27422;52.444;13.300;2023-07-29T00:43:04;10.07;;;6.95;;
41739;SDS011;27422;52.444;13.300;2023-07-29T00:45:30;8.32;;;6.35;;
41739;SDS011;27422;52.444;13.300;2023-07-29T00:47:57;8.63;;;6.67;;
41739;SDS011;27422;52.444;13.300;2023-07-29T00:50:22;8.82;;;6.80;;
41739;SDS011;27422;52.444;13.300;2023-07-29T00:52:48;9.40;;;6.72;;
41739;SDS011;27422;52.444;13.300;2023-07-29T00:55:14;9.18;;;6.90;;
41739;SDS011;27422;52.444;13.300;2023-07-29T00:57:39;10.15;;;6.45;;
41739;SDS011;27422;52.444;13.300;2023-07-29T01:00:05;8.95;;;6.65;;
41739;SDS011;27422;52.444;13.300;2023-07-29T01:05:06;7.93;;;6.50;;
41739;SDS011;27422;52.444;13.300;2023-07-29T01:13:09;8.70;;;6.75;;
41739;SDS011;27422;52.444;13.300;2023-07-29T01:15:43;8.98;;;7.00;;
41739;SDS011;27422;52.444;13.300;2023-07-29T01:18:30;9.43;;;7.20;;
41739;SDS011;27422;52.444;13.300;2023-07-29T01:20:58;10.05;;;6.97;;
41739;SDS011;27422;52.444;13.300;2023-07-29T01:23:31;9.15;;;6.43;;
41739;SDS011;27422;52.444;13.300;2023-07-29T01:25:57;8.70;;;6.60;;
41739;SDS011;27422;52.444;13.300;2023-07-29T01:28:22;9.85;;;7.57;;
41739;SDS011;27422;52.444;13.300;2023-07-29T01:30:49;8.55;;;6.93;;
41739;SDS011;27422;52.444;13.300;2023-07-29T01:33:20;10.98;;;7.07;;
41739;SDS011;27422;52.444;13.300;2023-07-29T01:35:49;11.02;;;7.28;;
41739;SDS011;27422;52.444;13.300;2023-07-29T01:38:32;9.07;;;6.38;;
41739;SDS011;27422;52.444;13.300;2023-07-29T01:41:02;7.63;;;6.07;;
41739;SDS011;27422;52.444;13.300;2023-07-29T01:43:28;10.48;;;7.13;;
41739;SDS011;27422;52.444;13.300;2023-07-29T01:45:54;8.70;;;6.55;;
41739;SDS011;27422;52.444;13.300;2023-07-29T01:48:23;8.85;;;7.10;;
41739;SDS011;27422;52.444;13.300;2023-07-29T01:50:48;8.48;;;6.35;;
41739;SDS011;27422;52.444;13.300;2023-07-29T01:53:14;8.73;;;7.10;;
41739;SDS011;27422;52.444;13.300;2023-07-29T01:55:40;12.25;;;7.00;;
41739;SDS011;27422;52.444;13.300;2023-07-29T01:58:06;10.03;;;7.23;;
41739;SDS011;27422;52.444;13.300;2023-07-29T02:00:32;8.52;;;6.65;;
41739;SDS011;27422;52.444;13.300;2023-07-29T02:02:59;7.75;;;5.93;;
41739;SDS011;27422;52.444;13.300;2023-07-29T02:05:25;7.60;;;6.38;;
41739;SDS011;27422;52.444;13.300;2023-07-29T02:07:53;10.60;;;6.80;;
41739;SDS011;27422;52.444;13.300;2023-07-29T02:10:19;8.77;;;6.45;;
41739;SDS011;27422;52.444;13.300;2023-07-29T02:12:44;10.68;;;7.25;;
41739;SDS011;27422;52.444;13.300;2023-07-29T02:15:10;9.57;;;7.18;;
41739;SDS011;27422;52.444;13.300;2023-07-29T02:17:35;9.07;;;6.53;;
41739;SDS011;27422;52.444;13.300;2023-07-29T02:20:01;8.27;;;6.63;;
41739;SDS011;27422;52.444;13.300;2023-07-29T02:22:28;8.27;;;6.30;;
41739;SDS011;27422;52.444;13.300;2023-07-29T02:24:54;7.57;;;6.22;;
41739;SDS011;27422;52.444;13.300;2023-07-29T02:27:19;7.60;;;6.45;;
41739;SDS011;27422;52.444;13.300;2023-07-29T02:29:45;8.85;;;6.70;;
41739;SDS011;27422;52.444;13.300;2023-07-29T02:32:13;8.05;;;6.60;;
41739;SDS011;27422;52.444;13.300;2023-07-29T02:34:39;8.32;;;6.40;;
41739;SDS011;27422;52.444;13.300;2023-07-29T02:37:05;8.60;;;6.45;;
41739;SDS011;27422;52.444;13.300;2023-07-29T02:39:30;10.30;;;6.78;;
41739;SDS011;27422;52.444;13.300;2023-07-29T02:41:56;8.02;;;6.38;;
41739;SDS011;27422;52.444;13.300;2023-07-29T02:44:23;9.30;;;6.97;;
41739;SDS011;27422;52.444;13.300;2023-07-29T02:46:48;9.95;;;7.20;;
41739;SDS011;27422;52.444;13.300;2023-07-29T02:49:14;8.60;;;6.85;;
41739;SDS011;27422;52.444;13.300;2023-07-29T02:51:39;9.40;;;7.22;;
41739;SDS011;27422;52.444;13.300;2023-07-29T02:54:05;9.77;;;6.88;;
41739;SDS011;27422;52.444;13.300;2023-07-29T02:56:31;9.38;;;7.00;;
41739;SDS011;27422;52.444;13.300;2023-07-29T02:58:56;9.00;;;6.97;;
41739;SDS011;27422;52.444;13.300;2023-07-29T03:01:22;8.95;;;7.00;;
41739;SDS011;27422;52.444;13.300;2023-07-29T03:03:47;9.40;;;6.88;;
41739;SDS011;27422;52.444;13.300;2023-07-29T03:06:19;9.07;;;6.65;;
41739;SDS011;27422;52.444;13.300;2023-07-29T03:08:44;10.25;;;6.88;;
41739;SDS011;27422;52.444;13.300;2023-07-29T03:11:11;10.63;;;7.00;;
41739;SDS011;27422;52.444;13.300;2023-07-29T03:13:38;8.93;;;6.97;;
41739;SDS011;27422;52.444;13.300;2023-07-29T03:16:11;9.20;;;7.50;;
41739;SDS011;27422;52.444;13.300;2023-07-29T03:18:38;9.88;;;7.07;;
41739;SDS011;27422;52.444;13.300;2023-07-29T03:21:03;9.32;;;6.88;;
41739;SDS011;27422;52.444;13.300;2023-07-29T03:23:29;10.75;;;7.20;;
41739;SDS011;27422;52.444;13.300;2023-07-29T03:25:56;9.13;;;7.00;;
41739;SDS011;27422;52.444;13.300;2023-07-29T03:28:24;9.95;;;7.45;;
41739;SDS011;27422;52.444;13.300;2023-07-29T03:33:16;10.77;;;7.47;;
41739;SDS011;27422;52.444;13.300;2023-07-29T03:35:41;11.07;;;7.45;;
41739;SDS011;27422;52.444;13.300;2023-07-29T03:40:34;10.35;;;6.70;;
41739;SDS011;27422;52.444;13.300;2023-07-29T03:43:00;9.05;;;6.80;;
41739;SDS011;27422;52.444;13.300;2023-07-29T03:45:25;9.90;;;7.10;;
41739;SDS011;27422;52.444;13.300;2023-07-29T03:47:51;9.13;;;7.25;;
41739;SDS011;27422;52.444;13.300;2023-07-29T03:50:16;9.52;;;7.40;;
41739;SDS011;27422;52.444;13.300;2023-07-29T03:52:44;9.25;;;7.00;;
41739;SDS011;27422;52.444;13.300;2023-07-29T03:55:09;9.20;;;7.47;;
41739;SDS011;27422;52.444;13.300;2023-07-29T03:57:35;9.60;;;7.40;;
41739;SDS011;27422;52.444;13.300;2023-07-29T04:00:00;10.05;;;7.45;;
41739;SDS011;27422;52.444;13.300;2023-07-29T04:02:26;8.55;;;7.30;;
41739;SDS011;27422;52.444;13.300;2023-07-29T04:04:51;11.38;;;7.30;;
41739;SDS011;27422;52.444;13.300;2023-07-29T04:07:17;9.27;;;7.65;;
41739;SDS011;27422;52.444;13.300;2023-07-29T04:09:42;10.10;;;7.50;;
41739;SDS011;27422;52.444;13.300;2023-07-29T04:12:08;9.65;;;8.00;;
41739;SDS011;27422;52.444;13.300;2023-07-29T04:14:34;8.82;;;6.97;;
41739;SDS011;27422;52.444;13.300;2023-07-29T04:17:00;9.15;;;7.03;;
41739;SDS011;27422;52.444;13.300;2023-07-29T04:19:25;11.32;;;7.18;;
41739;SDS011;27422;52.444;13.300;2023-07-29T04:21:51;8.48;;;6.93;;
41739;SDS011;27422;52.444;13.300;2023-07-29T04:24:19;9.25;;;7.18;;
41739;SDS011;27422;52.444;13.300;2023-07-29T04:26:45;9.25;;;7.28;;
41739;SDS011;27422;52.444;13.300;2023-07-29T04:29:11;8.18;;;6.82;;
41739;SDS011;27422;52.444;13.300;2023-07-29T04:31:36;8.45;;;6.63;;
41739;SDS011;27422;52.444;13.300;2023-07-29T04:34:02;9.88;;;7.47;;
41739;SDS011;27422;52.444;13.300;2023-07-29T04:36:27;9.32;;;7.32;;
41739;SDS011;27422;52.444;13.300;2023-07-29T04:38:53;9.90;;;7.13;;
41739;SDS011;27422;52.444;13.300;2023-07-29T04:41:26;9.35;;;7.13;;
41739;SDS011;27422;52.444;13.300;2023-07-29T04:43:51;10.05;;;7.35;;
41739;SDS011;27422;52.444;13.300;2023-07-29T04:46:17;10.25;;;7.97;;
41739;SDS011;27422;52.444;13.300;2023-07-29T04:48:43;9.18;;;7.43;;
41739;SDS011;27422;52.444;13.300;2023-07-29T04:51:08;10.93;;;7.20;;
41739;SDS011;27422;52.444;13.300;2023-07-29T04:53:44;8.77;;;7.25;;
41739;SDS011;27422;52.444;13.300;2023-07-29T04:56:09;8.32;;;6.97;;
41739;SDS011;27422;52.444;13.300;2023-07-29T04:58:35;10.10;;;6.85;;
41739;SDS011;27422;52.444;13.300;2023-07-29T05:01:03;10.07;;;6.80;;
41739;SDS011;27422;52.444;13.300;2023-07-29T05:03:29;7.32;;;6.30;;
41739;SDS011;27422;52.444;13.300;2023-07-29T05:05:57;9.05;;;6.88;;
41739;SDS011;27422;52.444;13.300;2023-07-29T05:08:24;9.40;;;7.20;;
41739;SDS011;27422;52.444;13.300;2023-07-29T05:10:55;9.68;;;6.97;;
41739;SDS011;27422;52.444;13.300;2023-07-29T05:13:21;10.30;;;6.82;;
41739;SDS011;27422;52.444;13.300;2023-07-29T05:15:49;8.00;;;6.43;;
41739;SDS011;27422;52.444;13.300;2023-07-29T05:18:15;8.77;;;6.13;;
41739;SDS011;27422;52.444;13.300;2023-07-29T05:20:41;8.68;;;6.80;;
41739;SDS011;27422;52.444;13.300;2023-07-29T05:23:07;7.22;;;5.80;;
41739;SDS011;27422;52.444;13.300;2023-07-29T05:25:32;6.50;;;5.47;;
41739;SDS011;27422;52.444;13.300;2023-07-29T05:28:06;7.60;;;5.93;;
41739;SDS011;27422;52.444;13.300;2023-07-29T05:30:32;7.93;;;6.20;;
41739;SDS011;27422;52.444;13.300;2023-07-29T05:33:02;8.27;;;5.18;;
41739;SDS011;27422;52.444;13.300;2023-07-29T05:35:27;7.38;;;5.07;;
41739;SDS011;27422;52.444;13.300;2023-07-29T05:37:53;11.15;;;6.18;;
41739;SDS011;27422;52.444;13.300;2023-07-29T05:40:18;7.05;;;5.60;;
41739;SDS011;27422;52.444;13.300;2023-07-29T05:42:44;7.00;;;5.63;;
41739;SDS011;27422;52.444;13.300;2023-07-29T05:45:10;8.25;;;6.30;;
41739;SDS011;27422;52.444;13.300;2023-07-29T05:47:38;6.85;;;5.25;;
41739;SDS011;27422;52.444;13.300;2023-07-29T05:50:04;7.25;;;4.90;;
41739;SDS011;27422;52.444;13.300;2023-07-29T05:52:30;6.30;;;5.07;;
41739;SDS011;27422;52.444;13.300;2023-07-29T05:54:56;8.90;;;4.72;;
41739;SDS011;27422;52.444;13.300;2023-07-29T05:57:21;6.75;;;4.95;;
41739;SDS011;27422;52.444;13.300;2023-07-29T05:59:52;6.38;;;5.13;;
41739;SDS011;27422;52.444;13.300;2023-07-29T06:02:18;6.93;;;5.00;;
41739;SDS011;27422;52.444;13.300;2023-07-29T06:04:43;7.13;;;5.28;;
41739;SDS011;27422;52.444;13.300;2023-07-29T06:07:09;7.65;;;5.40;;
41739;SDS011;27422;52.444;13.300;2023-07-29T06:09:34;8.10;;;5.07;;
41739;SDS011;27422;52.444;13.300;2023-07-29T06:12:00;8.00;;;5.20;;
41739;SDS011;27422;52.444;13.300;2023-07-29T06:14:25;6.63;;;5.07;;
41739;SDS011;27422;52.444;13.300;2023-07-29T06:16:51;8.82;;;4.93;;
41739;SDS011;27422;52.444;13.300;2023-07-29T06:19:17;7.32;;;4.90;;
41739;SDS011;27422;52.444;13.300;2023-07-29T06:21:43;5.80;;;4.37;;
41739;SDS011;27422;52.444;13.300;2023-07-29T06:24:09;8.35;;;4.63;;
41739;SDS011;27422;52.444;13.300;2023-07-29T06:26:34;5.32;;;3.80;;
41739;SDS011;27422;52.444;13.300;2023-07-29T06:28:59;5.53;;;4.03;;
41739;SDS011;27422;52.444;13.300;2023-07-29T06:31:25;5.20;;;3.70;;
41739;SDS011;27422;52.444;13.300;2023-07-29T06:33:50;5.40;;;3.70;;
41739;SDS011;27422;52.444;13.300;2023-07-29T06:36:16;6.32;;;3.53;;
41739;SDS011;27422;52.444;13.300;2023-07-29T06:38:41;4.78;;;3.20;;
41739;SDS011;27422;52.444;13.300;2023-07-29T06:41:07;4.10;;;3.00;;
41739;SDS011;27422;52.444;13.300;2023-07-29T06:43:32;6.03;;;3.30;;
41739;SDS011;27422;52.444;13.300;2023-07-29T06:45:58;5.10;;;3.17;;
41739;SDS011;27422;52.444;13.300;2023-07-29T06:48:27;4.13;;;2.60;;
41739;SDS011;27422;52.444;13.300;2023-07-29T06:50:52;4.15;;;3.28;;
41739;SDS011;27422;52.444;13.300;2023-07-29T06:53:17;5.78;;;2.67;;
41739;SDS011;27422;52.444;13.300;2023-07-29T06:55:45;5.80;;;2.90;;
41739;SDS011;27422;52.444;13.300;2023-07-29T06:58:13;4.30;;;2.90;;
41739;SDS011;27422;52.444;13.300;2023-07-29T07:00:39;4.82;;;3.00;;
41739;SDS011;27422;52.444;13.300;2023-07-29T07:03:05;4.03;;;2.80;;
41739;SDS011;27422;52.444;13.300;2023-07-29T07:05:30;5.38;;;3.00;;
41739;SDS011;27422;52.444;13.300;2023-07-29T07:07:55;3.90;;;2.55;;
41739;SDS011;27422;52.444;13.300;2023-07-29T07:10:21;3.78;;;2.67;;
41739;SDS011;27422;52.444;13.300;2023-07-29T07:12:46;4.18;;;3.05;;
41739;SDS011;27422;52.444;13.300;2023-07-29T07:15:12;3.83;;;2.72;;
41739;SDS011;27422;52.444;13.300;2023-07-29T07:17:38;5.18;;;2.50;;
41739;SDS011;27422;52.444;13.300;2023-07-29T07:20:04;5.40;;;2.53;;
41739;SDS011;27422;52.444;13.300;2023-07-29T07:22:30;4.75;;;2.60;;
41739;SDS011;27422;52.444;13.300;2023-07-29T07:24:56;4.35;;;2.50;;
41739;SDS011;27422;52.444;13.300;2023-07-29T07:27:21;4.63;;;2.50;;
41739;SDS011;27422;52.444;13.300;2023-07-29T07:29:47;3.22;;;2.40;;
41739;SDS011;27422;52.444;13.300;2023-07-29T07:32:12;5.82;;;2.67;;
41739;SDS011;27422;52.444;13.300;2023-07-29T07:34:38;5.30;;;2.67;;
41739;SDS011;27422;52.444;13.300;2023-07-29T07:37:06;4.10;;;2.70;;
41739;SDS011;27422;52.444;13.300;2023-07-29T07:39:32;3.38;;;2.20;;
41739;SDS011;27422;52.444;13.300;2023-07-29T07:41:57;3.20;;;2.00;;
41739;SDS011;27422;52.444;13.300;2023-07-29T07:44:23;4.38;;;2.65;;
41739;SDS011;27422;52.444;13.300;2023-07-29T07:46:51;3.33;;;2.30;;
41739;SDS011;27422;52.444;13.300;2023-07-29T07:49:19;3.83;;;2.53;;
41739;SDS011;27422;52.444;13.300;2023-07-29T07:51:45;3.13;;;2.13;;
41739;SDS011;27422;52.444;13.300;2023-07-29T07:54:11;3.00;;;2.03;;
41739;SDS011;27422;52.444;13.300;2023-07-29T07:56:36;4.20;;;2.33;;
41739;SDS011;27422;52.444;13.300;2023-07-29T07:59:01;3.55;;;2.20;;
41739;SDS011;27422;52.444;13.300;2023-07-29T08:01:39;3.10;;;2.08;;
41739;SDS011;27422;52.444;13.300;2023-07-29T08:04:05;4.13;;;2.10;;
41739;SDS011;27422;52.444;13.300;2023-07-29T08:06:31;3.50;;;2.10;;
41739;SDS011;27422;52.444;13.300;2023-07-29T08:08:57;3.15;;;2.03;;
41739;SDS011;27422;52.444;13.300;2023-07-29T08:11:23;3.45;;;2.15;;
41739;SDS011;27422;52.444;13.300;2023-07-29T08:14:10;4.32;;;2.40;;
41739;SDS011;27422;52.444;13.300;2023-07-29T08:16:38;3.20;;;2.00;;
41739;SDS011;27422;52.444;13.300;2023-07-29T08:19:03;3.65;;;2.40;;
41739;SDS011;27422;52.444;13.300;2023-07-29T08:21:29;3.40;;;2.08;;
41739;SDS011;27422;52.444;13.300;2023-07-29T08:23:54;2.97;;;1.92;;
41739;SDS011;27422;52.444;13.300;2023-07-29T08:26:20;4.93;;;2.20;;
41739;SDS011;27422;52.444;13.300;2023-07-29T08:28:46;5.55;;;1.80;;
41739;SDS011;27422;52.444;13.300;2023-07-29T08:31:12;3.22;;;1.80;;
41739;SDS011;27422;52.444;13.300;2023-07-29T08:33:37;4.07;;;1.60;;
41739;SDS011;27422;52.444;13.300;2023-07-29T08:36:03;4.25;;;1.70;;
41739;SDS011;27422;52.444;13.300;2023-07-29T08:38:34;3.35;;;1.80;;
41739;SDS011;27422;52.444;13.300;2023-07-29T08:41:10;2.90;;;1.90;;
41739;SDS011;27422;52.444;13.300;2023-07-29T08:43:40;2.92;;;1.88;;
41739;SDS011;27422;52.444;13.300;2023-07-29T08:46:19;3.33;;;2.03;;
41739;SDS011;27422;52.444;13.300;2023-07-29T08:48:50;3.75;;;1.58;;
41739;SDS011;27422;52.444;13.300;2023-07-29T08:51:16;4.10;;;1.80;;
41739;SDS011;27422;52.444;13.300;2023-07-29T08:53:42;3.70;;;1.80;;
41739;SDS011;27422;52.444;13.300;2023-07-29T08:56:08;2.80;;;1.70;;
41739;SDS011;27422;52.444;13.300;2023-07-29T08:58:33;2.88;;;1.50;;
41739;SDS011;27422;52.444;13.300;2023-07-29T09:00:59;3.92;;;2.03;;
41739;SDS011;27422;52.444;13.300;2023-07-29T09:03:31;4.05;;;1.77;;
41739;SDS011;27422;52.444;13.300;2023-07-29T09:05:57;3.17;;;1.80;;
41739;SDS011;27422;52.444;13.300;2023-07-29T09:08:24;3.40;;;1.80;;
41739;SDS011;27422;52.444;13.300;2023-07-29T09:10:53;4.20;;;1.75;;
41739;SDS011;27422;52.444;13.300;2023-07-29T09:13:23;2.25;;;1.40;;
41739;SDS011;27422;52.444;13.300;2023-07-29T09:15:55;3.67;;;1.90;;
41739;SDS011;27422;52.444;13.300;2023-07-29T09:20:48;5.28;;;1.63;;
41739;SDS011;27422;52.444;13.300;2023-07-29T09:23:14;4.30;;;1.60;;
41739;SDS011;27422;52.444;13.300;2023-07-29T09:25:40;2.75;;;1.58;;
41739;SDS011;27422;52.444;13.300;2023-07-29T09:28:15;3.10;;;1.75;;
41739;SDS011;27422;52.444;13.300;2023-07-29T09:30:42;3.35;;;1.30;;
41739;SDS011;27422;52.444;13.300;2023-07-29T09:33:09;2.83;;;1.60;;
41739;SDS011;27422;52.444;13.300;2023-07-29T09:35:36;3.10;;;1.50;;
41739;SDS011;27422;52.444;13.300;2023-07-29T09:38:05;2.70;;;1.30;;
41739;SDS011;27422;52.444;13.300;2023-07-29T09:40:40;2.47;;;1.33;;
41739;SDS011;27422;52.444;13.300;2023-07-29T09:43:09;2.50;;;1.30;;
41739;SDS011;27422;52.444;13.300;2023-07-29T09:45:35;2.83;;;1.50;;
41739;SDS011;27422;52.444;13.300;2023-07-29T09:48:04;2.40;;;1.20;;
41739;SDS011;27422;52.444;13.300;2023-07-29T09:50:41;2.35;;;1.30;;
41739;SDS011;27422;52.444;13.300;2023-07-29T09:53:06;2.45;;;1.30;;
41739;SDS011;27422;52.444;13.300;2023-07-29T09:55:32;3.75;;;1.23;;
41739;SDS011;27422;52.444;13.300;2023-07-29T09:58:02;4.00;;;1.40;;
41739;SDS011;27422;52.444;13.300;2023-07-29T10:00:32;2.22;;;1.20;;
41739;SDS011;27422;52.444;13.300;2023-07-29T10:03:07;4.15;;;1.60;;
41739;SDS011;27422;52.444;13.300;2023-07-29T10:05:33;3.70;;;1.10;;
41739;SDS011;27422;52.444;13.300;2023-07-29T10:08:01;3.47;;;1.20;;
41739;SDS011;27422;52.444;13.300;2023-07-29T10:10:27;3.13;;;1.08;;
41739;SDS011;27422;52.444;13.300;2023-07-29T10:12:54;2.50;;;1.10;;
41739;SDS011;27422;52.444;13.300;2023-07-29T10:15:22;3.67;;;1.20;;
41739;SDS011;27422;52.444;13.300;2023-07-29T10:17:47;2.47;;;1.20;;
41739;SDS011;27422;52.444;13.300;2023-07-29T10:20:15;4.05;;;1.35;;
41739;SDS011;27422;52.444;13.300;2023-07-29T10:22:43;2.92;;;1.33;;
41739;SDS011;27422;52.444;13.300;2023-07-29T10:25:22;2.70;;;1.20;;
41739;SDS011;27422;52.444;13.300;2023-07-29T10:27:53;2.67;;;1.30;;
41739;SDS011;27422;52.444;13.300;2023-07-29T10:30:22;1.83;;;1.10;;
41739;SDS011;27422;52.444;13.300;2023-07-29T10:32:49;2.58;;;1.17;;
41739;SDS011;27422;52.444;13.300;2023-07-29T10:35:17;2.63;;;1.20;;
41739;SDS011;27422;52.444;13.300;2023-07-29T10:37:43;2.00;;;1.00;;
41739;SDS011;27422;52.444;13.300;2023-07-29T10:40:10;2.65;;;1.20;;
41739;SDS011;27422;52.444;13.300;2023-07-29T10:42:37;2.53;;;1.10;;
41739;SDS011;27422;52.444;13.300;2023-07-29T10:45:17;2.00;;;1.03;;
41739;SDS011;27422;52.444;13.300;2023-07-29T10:47:46;2.10;;;1.00;;
41739;SDS011;27422;52.444;13.300;2023-07-29T10:50:19;2.47;;;1.05;;
41739;SDS011;27422;52.444;13.300;2023-07-29T10:52:48;1.73;;;0.93;;
41739;SDS011;27422;52.444;13.300;2023-07-29T10:58:11;2.20;;;1.20;;
41739;SDS011;27422;52.444;13.300;2023-07-29T11:00:38;5.15;;;1.20;;
41739;SDS011;27422;52.444;13.300;2023-07-29T11:03:08;4.05;;;1.35;;
41739;SDS011;27422;52.444;13.300;2023-07-29T11:05:53;3.63;;;1.50;;
41739;SDS011;27422;52.444;13.300;2023-07-29T11:08:28;3.67;;;1.70;;
41739;SDS011;27422;52.444;13.300;2023-07-29T11:11:01;6.95;;;2.92;;
41739;SDS011;27422;52.444;13.300;2023-07-29T11:13:32;8.48;;;2.80;;
41739;SDS011;27422;52.444;13.300;2023-07-29T11:15:59;6.22;;;2.40;;
41739;SDS011;27422;52.444;13.300;2023-07-29T11:18:26;4.50;;;1.90;;
41739;SDS011;27422;52.444;13.300;2023-07-29T11:20:53;3.17;;;1.52;;
41739;SDS011;27422;52.444;13.300;2023-07-29T11:23:19;3.40;;;1.80;;
41739;SDS011;27422;52.444;13.300;2023-07-29T11:25:45;4.22;;;1.80;;
41739;SDS011;27422;52.444;13.300;2023-07-29T11:28:13;4.25;;;1.70;;
41739;SDS011;27422;52.444;13.300;2023-07-29T11:30:39;3.33;;;1.70;;
41739;SDS011;27422;52.444;13.300;2023-07-29T11:33:04;2.75;;;1.40;;
41739;SDS011;27422;52.444;13.300;2023-07-29T11:35:30;3.97;;;1.73;;
41739;SDS011;27422;52.444;13.300;2023-07-29T11:37:57;4.40;;;1.90;;
41739;SDS011;27422;52.444;13.300;2023-07-29T11:40:31;4.25;;;1.50;;
41739;SDS011;27422;52.444;13.300;2023-07-29T11:42:57;3.85;;;1.67;;
41739;SDS011;27422;52.444;13.300;2023-07-29T11:45:22;3.13;;;1.40;;
41739;SDS011;27422;52.444;13.300;2023-07-29T11:47:48;3.67;;;1.65;;
41739;SDS011;27422;52.444;13.300;2023-07-29T11:50:14;3.80;;;1.33;;
41739;SDS011;27422;52.444;13.300;2023-07-29T11:52:40;3.35;;;1.40;;
41739;SDS011;27422;52.444;13.300;2023-07-29T11:55:07;3.47;;;1.58;;
41739;SDS011;27422;52.444;13.300;2023-07-29T11:57:43;2.42;;;1.08;;
41739;SDS011;27422;52.444;13.300;2023-07-29T12:00:09;2.35;;;1.20;;
41739;SDS011;27422;52.444;13.300;2023-07-29T12:05:06;2.83;;;1.27;;
41739;SDS011;27422;52.444;13.300;2023-07-29T12:07:33;22.75;;;7.72;;
41739;SDS011;27422;52.444;13.300;2023-07-29T12:09:58;14.88;;;5.80;;
41739;SDS011;27422;52.444;13.300;2023-07-29T12:12:28;9.65;;;3.20;;
41739;SDS011;27422;52.444;13.300;2023-07-29T12:14:54;9.52;;;3.10;;
41739;SDS011;27422;52.444;13.300;2023-07-29T12:17:19;5.15;;;2.00;;
41739;SDS011;27422;52.444;13.300;2023-07-29T12:19:45;3.20;;;1.42;;
41739;SDS011;27422;52.444;13.300;2023-07-29T12:22:10;4.28;;;1.95;;
41739;SDS011;27422;52.444;13.300;2023-07-29T12:24:37;5.28;;;1.88;;
41739;SDS011;27422;52.444;13.300;2023-07-29T12:29:29;3.85;;;1.58;;
41739;SDS011;27422;52.444;13.300;2023-07-29T12:31:58;3.72;;;1.90;;
41739;SDS011;27422;52.444;13.300;2023-07-29T12:34:27;4.03;;;1.70;;
41739;SDS011;27422;52.444;13.300;2023-07-29T12:36:54;3.38;;;1.75;;
41739;SDS011;27422;52.444;13.300;2023-07-29T12:41:53;3.50;;;1.80;;
41739;SDS011;27422;52.444;13.300;2023-07-29T12:44:25;3.75;;;1.85;;
41739;SDS011;27422;52.444;13.300;2023-07-29T12:46:54;3.25;;;1.70;;
41739;SDS011;27422;52.444;13.300;2023-07-29T12:49:19;3.65;;;1.70;;
41739;SDS011;27422;52.444;13.300;2023-07-29T12:51:45;3.25;;;1.65;;
41739;SDS011;27422;52.444;13.300;2023-07-29T12:54:10;2.95;;;1.48;;
41739;SDS011;27422;52.444;13.300;2023-07-29T12:56:36;3.30;;;1.85;;
41739;SDS011;27422;52.444;13.300;2023-07-29T12:59:01;3.70;;;2.00;;
41739;SDS011;27422;52.444;13.300;2023-07-29T13:01:28;3.73;;;1.60;;
41739;SDS011;27422;52.444;13.300;2023-07-29T13:03:54;3.05;;;1.80;;
41739;SDS011;27422;52.444;13.300;2023-07-29T13:06:19;3.45;;;1.90;;
41739;SDS011;27422;52.444;13.300;2023-07-29T13:08:45;3.25;;;1.95;;
41739;SDS011;27422;52.444;13.300;2023-07-29T13:11:11;3.05;;;1.75;;
41739;SDS011;27422;52.444;13.300;2023-07-29T13:13:39;3.25;;;1.90;;
41739;SDS011;27422;52.444;13.300;2023-07-29T13:16:05;3.92;;;1.90;;
41739;SDS011;27422;52.444;13.300;2023-07-29T13:18:31;3.67;;;1.90;;
41739;SDS011;27422;52.444;13.300;2023-07-29T13:20:56;3.80;;;2.10;;
41739;SDS011;27422;52.444;13.300;2023-07-29T13:23:25;3.83;;;1.90;;
41739;SDS011;27422;52.444;13.300;2023-07-29T13:25:51;3.03;;;1.70;;
41739;SDS011;27422;52.444;13.300;2023-07-29T13:28:17;4.07;;;1.70;;
41739;SDS011;27422;52.444;13.300;2023-07-29T13:30:42;3.15;;;1.88;;
41739;SDS011;27422;52.444;13.300;2023-07-29T13:33:12;2.85;;;1.48;;
41739;SDS011;27422;52.444;13.300;2023-07-29T13:35:38;3.00;;;1.50;;
41739;SDS011;27422;52.444;13.300;2023-07-29T13:38:03;3.08;;;1.45;;
41739;SDS011;27422;52.444;13.300;2023-07-29T13:40:29;4.68;;;1.50;;
41739;SDS011;27422;52.444;13.300;2023-07-29T13:42:54;3.60;;;1.40;;
41739;SDS011;27422;52.444;13.300;2023-07-29T13:45:20;3.75;;;1.30;;
41739;SDS011;27422;52.444;13.300;2023-07-29T13:47:46;2.67;;;1.23;;
41739;SDS011;27422;52.444;13.300;2023-07-29T13:50:12;2.40;;;1.20;;
41739;SDS011;27422;52.444;13.300;2023-07-29T13:52:37;2.05;;;1.10;;
41739;SDS011;27422;52.444;13.300;2023-07-29T13:55:03;2.72;;;1.20;;
41739;SDS011;27422;52.444;13.300;2023-07-29T13:57:29;2.95;;;1.23;;
41739;SDS011;27422;52.444;13.300;2023-07-29T13:59:55;2.35;;;1.10;;
41739;SDS011;27422;52.444;13.300;2023-07-29T14:02:20;2.60;;;1.20;;
41739;SDS011;27422;52.444;13.300;2023-07-29T14:04:46;2.15;;;0.90;;
41739;SDS011;27422;52.444;13.300;2023-07-29T14:07:11;1.65;;;0.80;;
41739;SDS011;27422;52.444;13.300;2023-07-29T14:09:36;2.10;;;0.80;;
41739;SDS011;27422;52.444;13.300;2023-07-29T14:12:03;2.17;;;1.08;;
41739;SDS011;27422;52.444;13.300;2023-07-29T14:14:29;1.55;;;0.70;;
41739;SDS011;27422;52.444;13.300;2023-07-29T14:16:55;2.75;;;0.90;;
41739;SDS011;27422;52.444;13.300;2023-07-29T14:19:20;2.47;;;0.73;;
41739;SDS011;27422;52.444;13.300;2023-07-29T14:21:48;1.65;;;0.75;;
41739;SDS011;27422;52.444;13.300;2023-07-29T14:24:16;2.88;;;0.90;;
41739;SDS011;27422;52.444;13.300;2023-07-29T14:26:42;2.08;;;0.75;;
41739;SDS011;27422;52.444;13.300;2023-07-29T14:29:07;2.03;;;0.85;;
41739;SDS011;27422;52.444;13.300;2023-07-29T14:31:32;3.50;;;1.00;;
41739;SDS011;27422;52.444;13.300;2023-07-29T14:33:58;1.92;;;0.80;;
41739;SDS011;27422;52.444;13.300;2023-07-29T14:36:24;2.22;;;0.80;;
41739;SDS011;27422;52.444;13.300;2023-07-29T14:38:50;3.50;;;1.10;;
41739;SDS011;27422;52.444;13.300;2023-07-29T14:41:24;3.67;;;1.10;;
41739;SDS011;27422;52.444;13.300;2023-07-29T14:43:49;2.85;;;0.80;;
41739;SDS011;27422;52.444;13.300;2023-07-29T14:46:15;3.15;;;1.00;;
41739;SDS011;27422;52.444;13.300;2023-07-29T14:48:40;2.53;;;0.82;;
41739;SDS011;27422;52.444;13.300;2023-07-29T14:51:06;1.60;;;0.80;;
41739;SDS011;27422;52.444;13.300;2023-07-29T14:53:40;1.90;;;0.90;;
41739;SDS011;27422;52.444;13.300;2023-07-29T14:56:05;3.88;;;1.10;;
41739;SDS011;27422;52.444;13.300;2023-07-29T14:58:31;1.83;;;0.90;;